createdAt,value
2023-04-18T00:00:21.958Z,8.69
2023-04-18T00:05:25.693Z,8.71
2023-04-18T00:10:30.610Z,8.66
2023-04-18T00:15:35.462Z,8.67
2023-04-18T00:20:39.442Z,8.65
2023-04-18T00:25:44.285Z,8.66
2023-04-18T00:30:48.937Z,8.66
2023-04-18T00:35:52.682Z,8.73
2023-04-18T00:40:57.662Z,8.77
2023-04-18T00:46:01.772Z,8.74
2023-04-18T00:51:06.173Z,8.72
2023-04-18T00:56:11.646Z,8.82
2023-04-18T01:01:15.159Z,8.79
2023-04-18T01:06:20.682Z,8.73
2023-04-18T01:11:25.767Z,8.68
2023-04-18T01:16:29.940Z,8.70
2023-04-18T01:21:37.377Z,8.65
2023-04-18T01:26:45.002Z,8.64
2023-04-18T01:31:48.524Z,8.67
2023-04-18T01:36:52.449Z,8.53
2023-04-18T01:41:57.405Z,8.55
2023-04-18T01:47:01.249Z,8.47
2023-04-18T01:52:05.156Z,8.47
2023-04-18T01:57:10.274Z,8.48
2023-04-18T02:02:15.145Z,8.37
2023-04-18T02:07:18.718Z,8.34
2023-04-18T02:12:23.819Z,8.36
2023-04-18T02:17:27.416Z,8.37
2023-04-18T02:22:31.615Z,8.44
2023-04-18T02:27:39.105Z,8.60
2023-04-18T02:32:42.920Z,8.62
2023-04-18T02:37:46.390Z,8.63
2023-04-18T02:42:51.736Z,8.52
2023-04-18T02:47:56.660Z,8.52
2023-04-18T02:53:00.580Z,8.60
2023-04-18T02:58:16.122Z,8.62
2023-04-18T03:03:28.406Z,8.68
2023-04-18T03:08:48.398Z,8.65
2023-04-18T03:13:54.793Z,8.58
2023-04-18T03:19:01.587Z,8.46
2023-04-18T03:24:07.194Z,8.29
2023-04-18T03:29:13.434Z,8.34
2023-04-18T03:34:20.543Z,8.36
2023-04-18T03:39:24.102Z,8.32
2023-04-18T03:44:31.366Z,8.33
2023-04-18T03:49:35.464Z,8.32
2023-04-18T03:54:40.336Z,8.36
2023-04-18T03:59:47.795Z,8.34
2023-04-18T04:04:51.899Z,8.27
2023-04-18T04:09:56.107Z,8.23
2023-04-18T04:15:01.431Z,8.22
2023-04-18T04:20:09.502Z,8.22
2023-04-18T04:25:13.872Z,8.31
2023-04-18T04:30:21.147Z,8.27
2023-04-18T04:35:25.288Z,8.34
2023-04-18T04:40:29.274Z,8.31
2023-04-18T04:45:43.215Z,8.42
2023-04-18T04:50:54.314Z,8.56
2023-04-18T04:55:58.591Z,8.66
2023-04-18T05:01:03.544Z,8.92
2023-04-18T05:06:11.422Z,8.83
2023-04-18T05:11:15.211Z,8.98
2023-04-18T05:16:20.201Z,9.16
2023-04-18T05:21:24.774Z,9.29
2023-04-18T05:26:28.497Z,9.30
2023-04-18T05:31:36.711Z,9.52
2023-04-18T05:36:40.543Z,9.50
2023-04-18T05:41:44.390Z,9.54
2023-04-18T05:46:51.412Z,9.58
2023-04-18T05:51:56.579Z,9.79
2023-04-18T05:57:00.865Z,10.02
2023-04-18T06:02:10.264Z,10.22
2023-04-18T06:07:13.848Z,10.40
2023-04-18T06:12:17.392Z,10.52
2023-04-18T06:17:23.057Z,10.55
2023-04-18T06:22:26.598Z,10.57
2023-04-18T06:27:31.941Z,10.68
2023-04-18T06:32:37.634Z,10.65
2023-04-18T06:37:44.139Z,10.84
2023-04-18T06:42:47.912Z,10.94
2023-04-18T06:47:53.223Z,10.78
2023-04-18T06:52:57.287Z,10.75
2023-04-18T06:58:01.680Z,10.98
2023-04-18T07:03:11.381Z,11.14
2023-04-18T07:08:15.598Z,11.23
2023-04-18T07:13:18.997Z,11.35
2023-04-18T07:18:36.752Z,11.71
2023-04-18T07:23:41.644Z,11.85
2023-04-18T07:28:45.148Z,12.36
2023-04-18T07:33:50.163Z,12.26
2023-04-18T07:38:53.680Z,12.21
2023-04-18T07:43:57.406Z,11.99
2023-04-18T07:49:03.691Z,12.20
2023-04-18T07:54:07.375Z,12.55
2023-04-18T07:59:10.821Z,13.17
2023-04-18T08:04:15.918Z,13.41
2023-04-18T08:09:20.681Z,13.26
2023-04-18T08:14:24.199Z,13.18
2023-04-18T08:19:29.099Z,13.20
2023-04-18T08:24:32.793Z,13.04
2023-04-18T08:29:36.253Z,13.22
2023-04-18T08:34:41.109Z,12.93
2023-04-18T08:39:45.008Z,12.99
2023-04-18T08:44:48.628Z,13.12
2023-04-18T08:49:53.968Z,13.00
2023-04-18T08:54:57.824Z,13.03
2023-04-18T09:00:02.076Z,13.09
2023-04-18T09:05:14.525Z,12.99
2023-04-18T09:10:27.572Z,13.02
2023-04-18T09:15:31.338Z,13.15
2023-04-18T09:20:38.307Z,13.29
2023-04-18T09:25:46.873Z,13.62
2023-04-18T09:30:53.163Z,13.66
2023-04-18T09:36:00.465Z,13.96
2023-04-18T09:41:10.050Z,13.57
2023-04-18T09:46:14.609Z,13.59
2023-04-18T09:51:20.115Z,13.59
2023-04-18T09:56:26.803Z,13.66
2023-04-18T10:01:31.005Z,13.59
2023-04-18T10:06:39.676Z,13.75
2023-04-18T10:11:43.864Z,13.91
2023-04-18T10:16:49.262Z,14.02
2023-04-18T10:21:57.168Z,13.89
2023-04-18T10:27:00.571Z,14.15
2023-04-18T10:32:07.673Z,14.62
2023-04-18T10:37:14.320Z,14.93
2023-04-18T10:42:17.839Z,15.35
2023-04-18T10:47:24.240Z,15.60
2023-04-18T10:52:30.815Z,15.31
2023-04-18T10:57:42.300Z,15.20
2023-04-18T11:02:57.962Z,16.07
2023-04-18T11:08:03.203Z,16.42
2023-04-18T11:13:07.244Z,16.76
2023-04-18T11:18:11.045Z,18.23
2023-04-18T11:23:21.574Z,18.58
2023-04-18T11:28:26.090Z,18.29
2023-04-18T11:33:30.401Z,19.05
2023-04-18T11:38:35.993Z,19.18
2023-04-18T11:43:43.650Z,19.62
2023-04-18T11:48:47.895Z,19.70
2023-04-18T11:53:53.384Z,19.64
2023-04-18T11:58:57.152Z,19.57
2023-04-18T12:04:05.253Z,20.30
2023-04-18T12:09:15.168Z,20.68
2023-04-18T12:14:22.372Z,19.89
2023-04-18T12:19:28.852Z,20.26
2023-04-18T12:24:34.659Z,20.48
2023-04-18T12:29:38.514Z,20.64
2023-04-18T12:34:41.930Z,20.59
2023-04-18T12:39:47.013Z,19.96
2023-04-18T12:44:50.707Z,20.63
2023-04-18T12:49:54.197Z,19.88
2023-04-18T12:54:59.469Z,18.58
2023-04-18T13:00:04.919Z,18.45
2023-04-18T13:05:10.094Z,18.68
2023-04-18T13:10:16.214Z,19.09
2023-04-18T13:15:22.789Z,18.66
2023-04-18T13:20:26.357Z,18.21
2023-04-18T13:25:31.416Z,17.95
2023-04-18T13:30:36.030Z,17.46
2023-04-18T13:35:39.501Z,17.33
2023-04-18T13:40:44.396Z,17.59
2023-04-18T13:45:48.170Z,18.35
2023-04-18T13:50:51.673Z,17.82
2023-04-18T13:55:57.335Z,17.50
2023-04-18T14:01:01.019Z,17.75
2023-04-18T14:06:04.655Z,17.44
2023-04-18T14:11:09.792Z,17.96
2023-04-18T14:16:14.903Z,17.75
2023-04-18T14:21:18.817Z,16.85
2023-04-18T14:26:24.496Z,16.51
2023-04-18T14:31:28.532Z,16.34
2023-04-18T14:36:32.751Z,16.13
2023-04-18T14:41:37.620Z,16.01
2023-04-18T14:46:41.389Z,15.90
2023-04-18T14:51:45.036Z,15.95
2023-04-18T14:56:50.402Z,15.86
2023-04-18T15:01:54.002Z,15.98
2023-04-18T15:06:57.783Z,15.93
2023-04-18T15:12:02.964Z,15.72
2023-04-18T15:17:06.977Z,15.62
2023-04-18T15:22:10.931Z,15.47
2023-04-18T15:27:16.023Z,15.47
2023-04-18T15:32:20.929Z,15.32
2023-04-18T15:37:24.824Z,15.11
2023-04-18T15:42:31.556Z,15.01
2023-04-18T15:47:35.466Z,14.87
2023-04-18T15:52:40.981Z,14.78
2023-04-18T15:57:46.470Z,14.76
2023-04-18T16:02:50.041Z,14.75
2023-04-18T16:07:53.936Z,14.55
2023-04-18T16:12:59.640Z,14.51
2023-04-18T16:18:03.302Z,14.50
2023-04-18T16:23:07.236Z,14.38
2023-04-18T16:28:12.136Z,14.29
2023-04-18T16:33:15.753Z,14.20
2023-04-18T16:38:19.625Z,14.26
2023-04-18T16:43:26.977Z,14.09
2023-04-18T16:48:30.938Z,13.88
2023-04-18T16:53:35.022Z,13.87
2023-04-18T16:58:40.161Z,13.77
2023-04-18T17:03:45.291Z,13.70
2023-04-18T17:08:49.211Z,13.68
2023-04-18T17:13:54.085Z,13.84
2023-04-18T17:18:57.872Z,13.77
2023-04-18T17:24:03.818Z,13.84
2023-04-18T17:29:09.109Z,13.73
2023-04-18T17:34:12.576Z,13.72
2023-04-18T17:39:17.055Z,13.70
2023-04-18T17:44:22.027Z,13.56
2023-04-18T17:49:31.428Z,13.58
2023-04-18T17:54:35.164Z,13.63
2023-04-18T17:59:40.674Z,13.57
2023-04-18T18:04:44.538Z,13.51
2023-04-18T18:09:48.090Z,13.42
2023-04-18T18:14:52.932Z,13.39
2023-04-18T18:19:56.592Z,13.41
2023-04-18T18:25:00.494Z,13.35
2023-04-18T18:30:06.264Z,13.18
2023-04-18T18:35:13.775Z,13.22
2023-04-18T18:40:17.892Z,13.09
2023-04-18T18:45:23.151Z,13.06
2023-04-18T18:50:28.502Z,13.07
2023-04-18T18:55:32.005Z,13.02
2023-04-18T19:00:39.300Z,13.03
2023-04-18T19:05:42.787Z,12.87
2023-04-18T19:10:46.268Z,12.82
2023-04-18T19:15:51.224Z,12.75
2023-04-18T19:20:54.821Z,12.68
2023-04-18T19:25:58.395Z,12.62
2023-04-18T19:31:03.337Z,12.57
2023-04-18T19:36:07.454Z,12.49
2023-04-18T19:41:11.538Z,12.46
2023-04-18T19:46:16.552Z,12.44
2023-04-18T19:51:20.470Z,12.42
2023-04-18T19:56:23.953Z,12.37
2023-04-18T20:01:29.180Z,12.33
2023-04-18T20:06:32.726Z,12.31
2023-04-18T20:11:36.472Z,12.31
2023-04-18T20:16:45.932Z,12.22
2023-04-18T20:21:49.714Z,12.16
2023-04-18T20:26:53.184Z,12.15
2023-04-18T20:31:58.119Z,12.03
2023-04-18T20:37:01.536Z,11.97
2023-04-18T20:42:05.474Z,12.02
2023-04-18T20:47:10.720Z,12.11
2023-04-18T20:52:14.520Z,12.14
2023-04-18T20:57:18.049Z,12.15
2023-04-18T21:02:23.206Z,12.17
2023-04-18T21:07:26.771Z,12.12
2023-04-18T21:12:30.294Z,12.13
2023-04-18T21:17:35.586Z,12.09
2023-04-18T21:22:39.085Z,12.11
2023-04-18T21:27:42.770Z,12.17
2023-04-18T21:32:49.323Z,12.18
2023-04-18T21:37:53.116Z,12.13
2023-04-18T21:42:56.851Z,12.15
2023-04-18T21:48:03.109Z,12.17
2023-04-18T21:53:06.941Z,12.10
2023-04-18T21:58:10.310Z,12.12
2023-04-18T22:03:15.456Z,12.06
2023-04-18T22:08:19.370Z,12.05
2023-04-18T22:13:23.398Z,12.10
2023-04-18T22:18:30.504Z,12.14
2023-04-18T22:23:33.963Z,12.10
2023-04-18T22:28:37.791Z,12.15
2023-04-18T22:33:43.089Z,12.15
2023-04-18T22:38:46.560Z,12.16
2023-04-18T22:43:50.274Z,12.08
2023-04-18T22:48:55.627Z,11.91
2023-04-18T22:53:59.445Z,11.90
2023-04-18T22:59:03.189Z,11.83
2023-04-18T23:04:08.446Z,11.65
2023-04-18T23:09:12.119Z,11.56
2023-04-18T23:14:16.258Z,11.52
2023-04-18T23:19:21.233Z,11.50
2023-04-18T23:24:24.982Z,11.41
2023-04-18T23:29:28.854Z,11.26
2023-04-18T23:34:33.796Z,11.38
2023-04-18T23:39:37.606Z,11.22
2023-04-18T23:44:41.383Z,11.09
2023-04-18T23:49:46.539Z,10.94
2023-04-18T23:54:50.009Z,10.84
2023-04-18T23:59:53.856Z,10.87
